createdAt,value
2024-02-29T00:00:18.117Z,90.84
2024-02-29T00:01:18.261Z,91.47
2024-02-29T00:02:18.114Z,89.95
2024-02-29T00:03:18.147Z,89.00
2024-02-29T00:04:18.146Z,88.06
2024-02-29T00:05:18.105Z,87.85
2024-02-29T00:06:22.985Z,88.37
2024-02-29T00:07:24.890Z,88.94
2024-02-29T00:08:26.145Z,88.90
2024-02-29T00:09:19.045Z,90.16
2024-02-29T00:10:18.183Z,91.03
2024-02-29T00:11:18.474Z,92.77
2024-02-29T00:12:18.170Z,92.67
2024-02-29T00:13:22.834Z,91.52
2024-02-29T00:14:25.839Z,91.20
2024-02-29T00:15:26.805Z,90.51
2024-02-29T00:16:18.988Z,90.99
2024-02-29T00:17:21.901Z,90.41
2024-02-29T00:18:17.994Z,89.04
2024-02-29T00:19:17.980Z,88.84
2024-02-29T00:20:25.530Z,89.67
2024-02-29T00:21:28.382Z,88.31
2024-02-29T00:22:23.274Z,87.99
2024-02-29T00:23:18.972Z,87.89
2024-02-29T00:24:26.708Z,87.99
2024-02-29T00:25:25.932Z,88.10
2024-02-29T00:26:23.480Z,87.99
2024-02-29T00:27:19.030Z,88.10
2024-02-29T00:28:18.080Z,87.93
2024-02-29T00:30:24.398Z,88.56
2024-02-29T00:31:27.960Z,89.19
2024-02-29T00:32:29.809Z,89.40
2024-02-29T00:33:27.941Z,90.45
2024-02-29T00:34:30.495Z,89.82
2024-02-29T00:35:24.642Z,89.09
2024-02-29T00:36:18.788Z,90.09
2024-02-29T00:37:17.792Z,90.30
2024-02-29T00:38:20.044Z,91.08
2024-02-29T00:39:19.402Z,91.24
2024-02-29T00:40:21.436Z,90.41
2024-02-29T00:41:17.679Z,90.41
2024-02-29T00:42:27.749Z,90.93
2024-02-29T00:43:35.767Z,92.23
2024-02-29T00:44:29.708Z,91.46
2024-02-29T00:45:18.751Z,90.83
2024-02-29T00:46:27.925Z,91.03
2024-02-29T00:47:26.810Z,90.45
2024-02-29T00:48:25.011Z,90.72
2024-02-29T00:49:25.914Z,91.39
2024-02-29T00:50:31.333Z,91.08
2024-02-29T00:51:32.393Z,91.08
2024-02-29T00:52:18.732Z,90.45
2024-02-29T00:54:27.478Z,90.97
2024-02-29T00:55:18.729Z,91.50
2024-02-29T00:56:17.616Z,90.72
2024-02-29T00:57:23.664Z,90.45
2024-02-29T00:58:24.526Z,90.87
2024-02-29T00:59:27.440Z,91.08
2024-02-29T01:00:19.233Z,90.83
2024-02-29T01:01:22.463Z,90.93
2024-02-29T01:02:19.728Z,91.03
2024-02-29T01:03:29.439Z,91.08
2024-02-29T01:04:30.227Z,90.97
2024-02-29T01:05:22.531Z,91.50
2024-02-29T01:06:17.668Z,90.45
2024-02-29T01:07:17.620Z,90.34
2024-02-29T01:08:29.581Z,90.76
2024-02-29T01:09:28.375Z,89.25
2024-02-29T01:13:26.009Z,88.56
2024-02-29T01:14:26.820Z,88.60
2024-02-29T01:15:18.490Z,89.19
2024-02-29T01:16:27.895Z,88.60
2024-02-29T01:19:44.445Z,88.92
2024-02-29T01:20:44.856Z,89.44
2024-02-29T01:21:53.459Z,90.07
2024-02-29T01:22:44.446Z,90.28
2024-02-29T01:25:11.674Z,91.96
2024-02-29T01:26:20.984Z,92.90
2024-02-29T01:27:11.942Z,92.90
2024-02-29T01:29:49.523Z,91.28
2024-02-29T01:30:49.561Z,91.22
2024-02-29T01:33:17.393Z,91.75
2024-02-29T01:34:17.739Z,90.80
2024-02-29T01:36:44.472Z,91.01
2024-02-29T01:37:44.403Z,91.01
2024-02-29T01:40:11.493Z,91.28
2024-02-29T01:41:11.881Z,92.69
2024-02-29T01:43:49.904Z,93.43
2024-02-29T01:44:59.604Z,93.32
2024-02-29T01:45:49.836Z,92.90
2024-02-29T01:48:50.837Z,93.91
2024-02-29T01:50:59.765Z,93.27
2024-02-29T01:51:50.856Z,92.86
2024-02-29T01:54:16.884Z,91.91
2024-02-29T01:55:17.601Z,91.81
2024-02-29T01:57:44.156Z,90.87
2024-02-29T01:58:52.491Z,91.01
2024-02-29T02:01:11.940Z,91.12
2024-02-29T02:02:11.777Z,90.80
2024-02-29T02:03:12.556Z,91.01
2024-02-29T02:04:13.285Z,91.12
2024-02-29T02:05:14.252Z,90.28
2024-02-29T02:06:21.259Z,90.59
2024-02-29T02:07:20.362Z,90.91
2024-02-29T02:08:21.274Z,90.17
2024-02-29T02:10:41.606Z,89.59
2024-02-29T02:11:50.803Z,89.94
2024-02-29T02:12:42.581Z,89.90
2024-02-29T02:13:41.519Z,89.90
2024-02-29T02:14:43.214Z,89.52
2024-02-29T02:15:44.750Z,89.00
2024-02-29T02:17:50.931Z,91.41
2024-02-29T02:18:41.981Z,90.78
2024-02-29T02:21:15.406Z,90.74
2024-02-29T02:22:24.494Z,90.74
2024-02-29T02:23:15.976Z,92.88
2024-02-29T02:25:54.597Z,92.77
2024-02-29T02:27:05.037Z,93.09
2024-02-29T02:29:22.751Z,92.88
2024-02-29T02:30:23.701Z,92.99
2024-02-29T02:31:35.327Z,92.63
2024-02-29T02:32:32.895Z,92.14
2024-02-29T02:34:50.330Z,90.78
2024-02-29T02:35:59.705Z,91.09
2024-02-29T02:38:17.267Z,91.45
2024-02-29T02:39:17.787Z,91.83
2024-02-29T02:42:07.127Z,93.02
2024-02-29T02:43:16.438Z,91.83
2024-02-29T02:45:48.136Z,91.56
2024-02-29T02:46:57.185Z,90.82
2024-02-29T02:48:04.614Z,91.35
2024-02-29T02:50:27.433Z,90.72
2024-02-29T02:54:00.494Z,91.56
2024-02-29T02:55:10.223Z,91.14
2024-02-29T02:57:35.352Z,91.45
2024-02-29T03:00:13.546Z,92.82
2024-02-29T03:01:24.091Z,92.71
2024-02-29T03:02:13.804Z,92.77
2024-02-29T03:03:24.784Z,92.77
2024-02-29T03:05:25.743Z,92.82
2024-02-29T03:07:49.030Z,93.51
2024-02-29T03:08:59.743Z,93.97
2024-02-29T03:10:58.797Z,91.97
2024-02-29T03:14:24.279Z,91.18
2024-02-29T03:15:26.580Z,91.07
2024-02-29T03:18:03.061Z,90.44
2024-02-29T03:19:09.461Z,90.55
2024-02-29T03:20:15.796Z,91.28
2024-02-29T03:22:13.189Z,90.86
2024-02-29T03:25:42.574Z,91.71
2024-02-29T03:28:19.784Z,93.80
2024-02-29T03:30:56.826Z,93.38
2024-02-29T03:31:57.358Z,93.34
2024-02-29T03:33:08.384Z,92.54
2024-02-29T03:35:32.494Z,92.02
2024-02-29T03:39:13.605Z,93.07
2024-02-29T03:40:26.077Z,92.86
2024-02-29T03:43:12.601Z,91.60
2024-02-29T03:44:14.758Z,90.55
2024-02-29T03:45:13.257Z,90.44
2024-02-29T03:46:22.106Z,91.53
2024-02-29T03:48:23.729Z,89.96
2024-02-29T03:49:26.378Z,89.75
2024-02-29T03:51:52.836Z,89.89
2024-02-29T03:53:04.547Z,88.95
2024-02-29T03:53:52.975Z,89.37
2024-02-29T03:55:03.691Z,89.96
2024-02-29T03:58:59.053Z,91.36
2024-02-29T03:59:59.886Z,91.36
2024-02-29T04:03:05.582Z,91.47
2024-02-29T04:04:17.297Z,90.80
2024-02-29T04:05:05.479Z,90.91
2024-02-29T04:07:45.271Z,91.68
2024-02-29T04:10:22.921Z,91.89
2024-02-29T04:11:33.861Z,91.85
2024-02-29T04:12:23.619Z,91.33
2024-02-29T04:13:31.763Z,91.53
2024-02-29T04:15:51.661Z,90.42
2024-02-29T04:16:52.232Z,90.11
2024-02-29T04:17:54.018Z,89.72
2024-02-29T04:18:56.062Z,90.11
2024-02-29T04:19:52.279Z,90.78
2024-02-29T04:22:25.738Z,91.09
2024-02-29T04:25:00.440Z,91.36
2024-02-29T04:26:11.706Z,91.05
2024-02-29T04:29:01.222Z,90.84
2024-02-29T04:31:47.340Z,91.72
2024-02-29T04:32:47.839Z,91.05
2024-02-29T04:35:20.640Z,92.88
2024-02-29T04:36:29.842Z,93.19
2024-02-29T04:38:50.765Z,93.51
2024-02-29T04:39:50.855Z,93.41
2024-02-29T04:42:17.933Z,92.52
2024-02-29T04:43:18.596Z,92.46
2024-02-29T04:45:48.815Z,92.99
2024-02-29T04:48:21.671Z,91.58
2024-02-29T04:49:30.980Z,90.99
2024-02-29T04:51:59.623Z,93.05
2024-02-29T04:52:59.671Z,93.15
2024-02-29T04:55:28.563Z,93.99
2024-02-29T04:56:35.992Z,93.89
2024-02-29T04:58:55.575Z,93.47
2024-02-29T04:59:56.009Z,93.05
2024-02-29T05:02:24.050Z,92.42
2024-02-29T05:03:24.496Z,91.68
2024-02-29T05:05:51.791Z,91.62
2024-02-29T05:07:01.130Z,91.83
2024-02-29T05:09:02.077Z,92.14
2024-02-29T05:09:54.131Z,91.41
2024-02-29T05:12:29.771Z,91.20
2024-02-29T05:13:29.834Z,92.04
2024-02-29T05:15:59.139Z,90.99
2024-02-29T05:17:08.308Z,91.41
2024-02-29T05:19:28.032Z,91.03
2024-02-29T05:20:38.122Z,90.78
2024-02-29T05:21:27.896Z,91.09
2024-02-29T05:23:55.188Z,91.45
2024-02-29T05:25:05.159Z,91.87
2024-02-29T05:25:55.918Z,91.66
2024-02-29T05:26:56.021Z,91.72
2024-02-29T05:29:52.241Z,90.71
2024-02-29T05:32:25.203Z,91.24
2024-02-29T05:33:34.733Z,91.77
2024-02-29T05:36:11.715Z,91.66
2024-02-29T05:37:12.012Z,90.92
2024-02-29T05:39:40.341Z,91.77
2024-02-29T05:40:57.717Z,91.03
2024-02-29T05:41:50.699Z,91.24
2024-02-29T05:44:07.458Z,90.82
2024-02-29T05:45:07.856Z,91.35
2024-02-29T05:47:40.379Z,90.82
2024-02-29T05:48:40.403Z,91.87
2024-02-29T05:49:40.300Z,91.66
2024-02-29T05:50:40.281Z,91.24
2024-02-29T05:51:40.311Z,91.13
2024-02-29T05:52:40.277Z,91.77
2024-02-29T05:53:40.252Z,93.03
2024-02-29T05:54:40.283Z,93.24
2024-02-29T05:55:40.228Z,92.88
2024-02-29T05:56:40.236Z,92.99
2024-02-29T05:57:40.233Z,92.99
2024-02-29T05:58:40.200Z,92.99
2024-02-29T05:59:40.185Z,93.09
2024-02-29T06:00:40.204Z,93.19
2024-02-29T06:01:40.201Z,92.88
2024-02-29T06:02:40.176Z,93.41
2024-02-29T06:03:40.178Z,92.67
2024-02-29T06:04:40.138Z,92.99
2024-02-29T06:05:40.121Z,93.30
2024-02-29T06:06:40.149Z,94.10
2024-02-29T06:07:40.196Z,93.89
2024-02-29T06:08:40.098Z,93.68
2024-02-29T06:09:40.130Z,94.10
2024-02-29T06:10:40.083Z,94.14
2024-02-29T06:11:40.072Z,94.04
2024-02-29T06:12:40.094Z,93.57
2024-02-29T06:13:40.038Z,92.99
2024-02-29T06:14:42.287Z,93.15
2024-02-29T06:15:58.844Z,93.15
2024-02-29T06:16:40.404Z,92.04
2024-02-29T06:17:51.017Z,91.89
2024-02-29T07:51:15.122Z,89.45
2024-02-29T07:52:15.221Z,89.31
2024-02-29T07:53:15.132Z,89.10
2024-02-29T07:54:15.137Z,87.53
2024-02-29T07:55:15.144Z,88.01
2024-02-29T07:56:15.088Z,88.75
2024-02-29T07:57:15.066Z,87.91
2024-02-29T07:58:15.152Z,87.04
2024-02-29T07:59:15.035Z,87.66
2024-02-29T08:00:15.045Z,87.66
2024-02-29T08:01:15.067Z,87.73
2024-02-29T08:02:15.009Z,87.16
2024-02-29T08:03:15.015Z,86.43
2024-02-29T08:04:15.084Z,85.19
2024-02-29T08:05:14.974Z,85.71
2024-02-29T08:06:14.987Z,85.19
2024-02-29T08:07:15.124Z,85.77
2024-02-29T08:08:14.956Z,86.29
2024-02-29T08:09:14.977Z,85.63
2024-02-29T08:10:15.058Z,85.11
2024-02-29T08:11:15.016Z,85.11
2024-02-29T08:12:14.918Z,84.69
2024-02-29T08:13:14.970Z,85.46
2024-02-29T08:14:16.379Z,84.98
2024-02-29T08:15:14.869Z,84.87
2024-02-29T08:16:14.913Z,85.19
2024-02-29T08:17:14.869Z,85.85
2024-02-29T08:18:14.920Z,86.40
2024-02-29T08:19:14.918Z,86.71
2024-02-29T08:20:14.864Z,86.19
2024-02-29T08:21:14.839Z,86.25
2024-02-29T08:22:14.951Z,86.04
2024-02-29T08:23:14.784Z,85.63
2024-02-29T08:24:14.780Z,85.52
2024-02-29T08:25:14.817Z,85.06
2024-02-29T08:26:14.769Z,85.59
2024-02-29T08:27:14.772Z,85.69
2024-02-29T08:28:14.934Z,85.28
2024-02-29T08:29:14.897Z,85.49
2024-02-29T08:30:14.724Z,85.49
2024-02-29T08:31:14.760Z,85.49
2024-02-29T08:32:15.907Z,84.23
2024-02-29T08:33:14.756Z,84.34
2024-02-29T08:34:14.689Z,85.38
2024-02-29T08:35:14.665Z,84.51
2024-02-29T08:36:14.660Z,84.68
2024-02-29T08:37:14.726Z,83.64
2024-02-29T08:38:14.632Z,84.37
2024-02-29T08:39:14.620Z,83.74
2024-02-29T08:40:14.727Z,83.64
2024-02-29T08:41:14.598Z,83.29
2024-02-29T08:42:14.596Z,83.60
2024-02-29T08:43:14.662Z,83.15
2024-02-29T08:44:14.563Z,83.04
2024-02-29T08:45:14.562Z,83.84
2024-02-29T08:46:14.609Z,83.94
2024-02-29T08:47:14.538Z,83.17
2024-02-29T08:48:14.535Z,83.24
2024-02-29T08:49:14.567Z,81.65
2024-02-29T08:50:14.521Z,81.02
2024-02-29T08:51:14.487Z,80.57
2024-02-29T08:52:14.515Z,81.09
2024-02-29T08:53:14.467Z,78.40
2024-02-29T08:54:14.468Z,79.27
2024-02-29T08:55:14.475Z,80.30
2024-02-29T08:56:14.447Z,80.33
2024-02-29T08:57:14.425Z,81.34
2024-02-29T08:58:14.463Z,81.40
2024-02-29T08:59:15.735Z,81.51
2024-02-29T09:00:14.393Z,80.99
2024-02-29T09:01:14.432Z,80.68
2024-02-29T09:02:14.371Z,80.71
2024-02-29T09:03:14.373Z,80.71
2024-02-29T09:04:14.424Z,80.82
2024-02-29T09:05:14.364Z,81.65
2024-02-29T09:06:14.338Z,81.40
2024-02-29T09:07:14.341Z,80.82
2024-02-29T09:08:14.322Z,81.23
2024-02-29T09:09:14.302Z,81.09
2024-02-29T09:10:14.395Z,80.99
2024-02-29T09:11:14.952Z,80.74
2024-02-29T09:12:14.274Z,81.23
2024-02-29T09:13:21.025Z,81.25
2024-02-29T09:14:15.258Z,79.15
2024-02-29T09:15:14.247Z,79.76
2024-02-29T09:16:14.273Z,79.86
2024-02-29T09:17:14.227Z,77.11
2024-02-29T09:18:14.236Z,73.16
2024-02-29T09:19:14.221Z,72.47
2024-02-29T09:20:14.184Z,71.31
2024-02-29T09:21:14.187Z,73.95
2024-02-29T09:22:14.202Z,74.15
2024-02-29T09:23:14.162Z,68.89
2024-02-29T09:24:15.957Z,66.46
2024-02-29T09:25:14.160Z,69.13
2024-02-29T09:26:14.123Z,66.67
2024-02-29T09:27:14.125Z,67.62
2024-02-29T09:28:14.187Z,68.16
2024-02-29T09:29:14.107Z,67.96
2024-02-29T09:30:14.079Z,68.99
2024-02-29T09:31:14.151Z,69.05
2024-02-29T09:32:14.065Z,70.25
2024-02-29T09:33:14.082Z,69.15
2024-02-29T09:34:14.129Z,70.25
2024-02-29T09:35:14.030Z,71.55
2024-02-29T09:36:14.023Z,69.88
2024-02-29T09:37:14.118Z,72.78
2024-02-29T09:38:13.991Z,70.60
2024-02-29T09:39:13.987Z,67.29
2024-02-29T09:40:13.997Z,67.33
2024-02-29T09:42:15.328Z,67.41
2024-02-29T09:43:14.071Z,64.14
2024-02-29T09:44:13.937Z,64.08
2024-02-29T09:45:13.944Z,63.85
2024-02-29T09:46:14.034Z,63.03
2024-02-29T09:47:13.932Z,62.35
2024-02-29T09:48:13.907Z,63.31
2024-02-29T09:49:13.916Z,65.01
2024-02-29T09:50:13.879Z,61.72
2024-02-29T09:51:15.246Z,61.29
2024-02-29T09:52:14.041Z,60.92
2024-02-29T09:53:13.837Z,60.82
2024-02-29T09:54:13.826Z,59.09
2024-02-29T09:55:13.912Z,58.99
2024-02-29T09:56:13.860Z,57.46
2024-02-29T09:57:13.814Z,61.07
2024-02-29T09:58:13.809Z,57.21
2024-02-29T09:59:13.792Z,56.95
2024-02-29T10:00:13.785Z,58.92
2024-02-29T10:01:13.851Z,58.56
2024-02-29T10:02:13.823Z,60.13
2024-02-29T10:03:13.729Z,59.66
2024-02-29T10:04:13.759Z,57.07
2024-02-29T10:05:13.765Z,56.36
2024-02-29T10:06:13.754Z,53.91
2024-02-29T10:07:13.727Z,56.37
2024-02-29T10:08:13.677Z,57.33
2024-02-29T10:09:13.683Z,59.70
2024-02-29T10:10:13.771Z,54.13
2024-02-29T10:11:13.985Z,55.60
2024-02-29T10:18:47.430Z,52.00
2024-02-29T10:18:57.211Z,54.36
2024-02-29T10:19:57.179Z,56.75
2024-02-29T10:22:39.299Z,57.21
2024-02-29T10:23:23.132Z,59.14
2024-02-29T10:24:23.143Z,59.28
2024-02-29T10:26:58.185Z,54.05
2024-02-29T10:27:49.238Z,55.91
2024-02-29T10:28:54.342Z,60.43
2024-02-29T10:29:49.033Z,60.04
2024-02-29T10:30:49.018Z,53.45
2024-02-29T10:31:48.997Z,54.11
2024-02-29T10:32:49.020Z,56.92
2024-02-29T10:33:49.063Z,58.36
2024-02-29T10:34:49.983Z,55.90
2024-02-29T10:35:48.943Z,55.17
2024-02-29T10:36:48.960Z,54.76
2024-02-29T10:37:48.959Z,53.70
2024-02-29T10:38:48.927Z,48.58
2024-02-29T10:39:48.952Z,50.57
2024-02-29T10:40:48.892Z,53.55
2024-02-29T10:42:14.950Z,51.90
2024-02-29T10:42:48.895Z,51.78
2024-02-29T10:43:48.932Z,50.34
2024-02-29T10:44:48.863Z,49.96
2024-02-29T10:45:48.884Z,52.54
2024-02-29T10:46:48.850Z,48.83
2024-02-29T10:47:48.865Z,48.00
2024-02-29T10:48:48.825Z,49.89
2024-02-29T10:49:48.844Z,50.70
2024-02-29T10:50:48.820Z,48.07
2024-02-29T10:51:48.924Z,49.93
2024-02-29T10:52:49.600Z,50.18
2024-02-29T10:53:48.755Z,51.14
2024-02-29T10:54:48.793Z,51.60
2024-02-29T10:55:48.751Z,53.70
2024-02-29T10:56:48.786Z,52.51
2024-02-29T10:57:48.730Z,54.28
2024-02-29T10:58:48.751Z,54.49
2024-02-29T10:59:48.734Z,53.17
2024-02-29T11:00:48.817Z,53.30
2024-02-29T11:01:48.943Z,53.06
2024-02-29T11:02:48.712Z,51.54
2024-02-29T11:03:48.732Z,51.88
2024-02-29T11:04:48.665Z,49.78
2024-02-29T11:05:48.743Z,49.38
2024-02-29T12:25:00.489Z,40.39
2024-02-29T12:25:37.746Z,42.32
2024-02-29T12:26:37.736Z,42.98
2024-02-29T12:27:37.755Z,43.12
2024-02-29T12:28:37.706Z,44.05
2024-02-29T12:29:37.697Z,44.47
2024-02-29T12:30:37.712Z,42.55
2024-02-29T12:31:37.669Z,42.19
2024-02-29T12:32:37.662Z,43.00
2024-02-29T12:33:37.788Z,44.01
2024-02-29T12:34:37.839Z,44.01
2024-02-29T12:35:37.690Z,43.74
2024-02-29T12:36:37.645Z,43.54
2024-02-29T12:37:37.608Z,42.98
2024-02-29T12:38:37.589Z,43.74
2024-02-29T12:39:37.600Z,46.79
2024-02-29T12:40:37.712Z,46.13
2024-02-29T12:41:37.566Z,47.16
2024-02-29T12:42:37.634Z,47.11
2024-02-29T12:43:37.563Z,47.00
2024-02-29T12:44:37.545Z,49.58
2024-02-29T12:45:37.601Z,49.80
2024-02-29T12:46:37.511Z,49.02
2024-02-29T12:47:37.546Z,49.30
2024-02-29T12:48:37.506Z,49.86
2024-02-29T12:49:37.482Z,47.61
2024-02-29T12:50:37.467Z,47.69
2024-02-29T12:51:37.478Z,45.00
2024-02-29T12:52:37.494Z,45.68
2024-02-29T12:53:37.443Z,45.62
2024-02-29T12:54:37.437Z,49.78
2024-02-29T12:55:37.425Z,49.73
2024-02-29T12:56:37.503Z,50.26
2024-02-29T12:57:37.452Z,50.15
2024-02-29T12:58:37.396Z,50.23
2024-02-29T12:59:37.457Z,48.87
2024-02-29T13:00:37.433Z,50.14
2024-02-29T13:01:37.457Z,46.64
2024-02-29T13:02:37.368Z,45.00
2024-02-29T13:03:37.335Z,44.37
2024-02-29T13:04:37.325Z,46.25
2024-02-29T13:05:37.312Z,46.68
2024-02-29T13:06:37.296Z,47.06
2024-02-29T13:07:37.298Z,47.62
2024-02-29T13:08:37.282Z,45.38
2024-02-29T13:09:37.296Z,46.13
2024-02-29T13:10:37.291Z,47.62
2024-02-29T13:11:37.303Z,45.06
2024-02-29T13:12:37.262Z,44.69
2024-02-29T13:13:37.255Z,41.03
2024-02-29T13:14:37.217Z,42.44
2024-02-29T13:15:37.215Z,41.61
2024-02-29T13:16:37.293Z,42.33
2024-02-29T13:17:37.244Z,42.88
2024-02-29T13:18:37.182Z,42.10
2024-02-29T13:19:37.162Z,43.48
2024-02-29T13:20:37.161Z,45.36
2024-02-29T13:21:37.151Z,45.54
2024-02-29T13:22:37.135Z,44.47
2024-02-29T13:23:37.147Z,44.87
2024-02-29T13:24:37.119Z,39.59
2024-02-29T13:25:37.254Z,40.15
2024-02-29T13:26:37.108Z,39.39
2024-02-29T13:27:37.103Z,41.01
2024-02-29T13:28:37.166Z,41.23
2024-02-29T13:29:37.060Z,42.47
2024-02-29T13:30:37.082Z,43.28
2024-02-29T13:31:37.067Z,45.03
2024-02-29T13:32:37.074Z,46.21
2024-02-29T13:33:37.023Z,47.74
2024-02-29T13:34:37.023Z,47.91
2024-02-29T13:35:37.030Z,47.79
2024-02-29T13:36:37.013Z,47.67
2024-02-29T13:37:37.032Z,45.83
2024-02-29T13:38:36.984Z,47.11
2024-02-29T13:39:36.966Z,47.66
2024-02-29T13:40:36.995Z,49.90
2024-02-29T13:41:36.953Z,50.16
2024-02-29T13:42:36.942Z,49.13
2024-02-29T13:43:36.948Z,48.77
2024-02-29T13:44:36.998Z,51.07
2024-02-29T13:45:36.899Z,47.63
2024-02-29T13:46:36.874Z,46.95
2024-02-29T13:47:36.921Z,48.82
2024-02-29T13:48:36.865Z,50.68
2024-02-29T13:49:36.899Z,51.42
2024-02-29T13:50:36.857Z,50.38
2024-02-29T13:51:36.826Z,49.83
2024-02-29T13:52:36.819Z,49.85
2024-02-29T13:53:36.809Z,50.26
2024-02-29T13:54:38.594Z,52.08
2024-02-29T13:55:36.810Z,51.35
2024-02-29T13:56:36.779Z,51.17
2024-02-29T13:57:36.802Z,51.01
2024-02-29T13:58:36.773Z,53.30
2024-02-29T13:59:36.778Z,53.34
2024-02-29T14:00:36.887Z,53.90
2024-02-29T14:01:36.834Z,54.33
2024-02-29T14:02:36.741Z,56.40
2024-02-29T14:03:36.716Z,55.38
2024-02-29T14:04:36.694Z,55.07
2024-02-29T14:05:36.686Z,56.20
2024-02-29T14:06:36.686Z,55.58
2024-02-29T14:07:36.663Z,55.51
2024-02-29T14:08:36.702Z,57.67
2024-02-29T14:09:36.643Z,57.29
2024-02-29T14:10:36.670Z,56.68
2024-02-29T14:11:36.675Z,57.73
2024-02-29T14:12:36.630Z,56.81
2024-02-29T14:13:39.404Z,57.62
2024-02-29T14:14:36.583Z,58.95
2024-02-29T14:15:36.569Z,59.26
2024-02-29T14:16:36.657Z,59.05
2024-02-29T14:17:36.574Z,59.97
2024-02-29T14:18:36.556Z,60.07
2024-02-29T14:19:36.645Z,60.38
2024-02-29T14:20:36.558Z,60.96
2024-02-29T14:21:36.510Z,57.39
2024-02-29T14:22:36.552Z,56.76
2024-02-29T14:23:36.513Z,56.48
2024-02-29T14:24:36.510Z,56.81
2024-02-29T14:25:36.516Z,58.75
2024-02-29T14:26:36.494Z,59.46
2024-02-29T14:27:36.463Z,58.26
2024-02-29T14:28:36.454Z,60.51
2024-02-29T14:29:36.449Z,58.78
2024-02-29T14:30:36.425Z,59.08
2024-02-29T14:31:36.449Z,59.39
2024-02-29T14:32:36.526Z,59.18
2024-02-29T14:33:36.380Z,60.13
2024-02-29T14:34:36.380Z,59.11
2024-02-29T14:35:36.396Z,59.92
2024-02-29T14:36:38.598Z,59.11
2024-02-29T14:37:36.514Z,60.30
2024-02-29T14:38:36.342Z,59.82
2024-02-29T14:39:42.472Z,59.18
2024-02-29T14:40:36.406Z,59.89
2024-02-29T14:41:36.407Z,59.72
2024-02-29T14:42:36.384Z,62.17
2024-02-29T14:43:36.299Z,60.74
2024-02-29T14:44:36.315Z,61.25
2024-02-29T14:45:36.306Z,61.05
2024-02-29T14:46:36.268Z,61.08
2024-02-29T14:47:36.308Z,62.30
2024-02-29T14:48:36.324Z,63.12
2024-02-29T14:49:36.252Z,61.35
2024-02-29T14:50:36.237Z,61.97
2024-02-29T14:51:36.231Z,61.76
2024-02-29T14:52:40.349Z,62.17
2024-02-29T14:53:36.238Z,60.85
2024-02-29T14:54:36.219Z,60.33
2024-02-29T14:55:36.180Z,60.74
2024-02-29T14:56:36.168Z,62.55
2024-02-29T14:57:36.214Z,60.85
2024-02-29T14:58:36.152Z,60.85
2024-02-29T14:59:36.173Z,60.53
2024-02-29T15:00:36.537Z,62.37
2024-02-29T15:01:36.163Z,62.27
2024-02-29T15:02:36.081Z,60.85
2024-02-29T15:03:36.090Z,60.26
2024-02-29T15:04:37.267Z,61.05
2024-02-29T15:05:36.070Z,59.44
2024-02-29T15:06:36.074Z,60.16
2024-02-29T15:07:36.045Z,62.10
2024-02-29T15:08:36.036Z,61.90
2024-02-29T15:09:36.061Z,61.08
2024-02-29T15:10:36.055Z,61.28
2024-02-29T15:11:36.042Z,60.90
2024-02-29T15:12:35.997Z,62.54
2024-02-29T15:13:35.982Z,61.90
2024-02-29T15:14:35.984Z,62.23
2024-02-29T15:15:35.960Z,60.80
2024-02-29T15:16:35.972Z,62.23
2024-02-29T15:17:35.981Z,62.23
2024-02-29T15:18:35.911Z,61.61
2024-02-29T15:19:35.940Z,62.74
2024-02-29T15:20:35.990Z,63.86
2024-02-29T15:21:35.914Z,61.00
2024-02-29T15:22:35.869Z,62.95
2024-02-29T15:23:35.905Z,62.46
2024-02-29T15:24:35.867Z,62.77
2024-02-29T15:25:35.891Z,63.00
2024-02-29T15:26:35.968Z,64.03
2024-02-29T15:27:35.821Z,64.13
2024-02-29T15:28:35.889Z,64.74
2024-02-29T15:29:35.836Z,64.57
2024-02-29T15:30:35.893Z,62.80
2024-02-29T15:31:35.814Z,63.31
2024-02-29T15:32:35.952Z,63.51
2024-02-29T15:33:35.788Z,62.29
2024-02-29T15:34:35.796Z,61.67
2024-02-29T15:35:35.724Z,63.21
2024-02-29T15:36:35.810Z,62.39
2024-02-29T15:37:35.770Z,63.39
2024-02-29T15:39:03.968Z,63.51
2024-02-29T15:39:35.723Z,63.07
2024-02-29T15:40:35.781Z,63.59
2024-02-29T15:41:35.721Z,63.41
2024-02-29T15:42:35.691Z,62.80
2024-02-29T15:43:35.770Z,63.41
2024-02-29T15:44:35.759Z,62.90
2024-02-29T15:45:35.654Z,63.21
2024-02-29T15:46:35.715Z,63.51
2024-02-29T15:47:35.679Z,63.41
2024-02-29T15:48:35.638Z,63.31
2024-02-29T15:49:35.631Z,62.46
2024-02-29T15:50:35.582Z,62.49
2024-02-29T15:51:35.555Z,62.46
2024-02-29T15:52:35.701Z,62.59
2024-02-29T15:53:35.545Z,63.00
2024-02-29T15:54:35.548Z,63.00
2024-02-29T15:55:35.642Z,61.88
2024-02-29T15:56:35.543Z,62.39
2024-02-29T15:57:35.528Z,62.57
2024-02-29T15:58:35.563Z,62.29
2024-02-29T15:59:35.474Z,61.67
2024-02-29T16:00:35.509Z,62.29
2024-02-29T16:01:35.582Z,62.90
2024-02-29T16:02:35.487Z,62.90
2024-02-29T16:03:35.433Z,63.00
2024-02-29T16:04:35.417Z,62.90
2024-02-29T16:05:35.454Z,62.39
2024-02-29T16:06:35.518Z,62.90
2024-02-29T16:07:35.459Z,62.29
2024-02-29T16:08:35.473Z,62.18
2024-02-29T16:09:35.398Z,62.59
2024-02-29T16:10:47.407Z,62.39
2024-02-29T16:11:35.433Z,62.90
2024-02-29T16:12:35.356Z,62.29
2024-02-29T16:13:35.322Z,61.98
2024-02-29T16:14:35.323Z,63.31
2024-02-29T16:15:35.311Z,62.39
2024-02-29T16:16:35.344Z,62.39
2024-02-29T16:17:35.332Z,62.39
2024-02-29T16:18:35.302Z,62.90
2024-02-29T16:19:35.269Z,62.42
2024-02-29T16:20:35.286Z,63.24
2024-02-29T16:21:35.271Z,64.50
2024-02-29T16:22:35.328Z,65.21
2024-02-29T16:23:35.215Z,65.52
2024-02-29T16:24:35.330Z,65.08
2024-02-29T16:25:35.347Z,64.90
2024-02-29T16:26:35.212Z,65.11
2024-02-29T16:27:35.179Z,66.34
2024-02-29T16:28:35.187Z,66.03
2024-02-29T16:29:35.172Z,66.47
2024-02-29T16:30:35.168Z,67.11
2024-02-29T16:31:35.167Z,68.21
2024-02-29T16:32:35.158Z,68.21
2024-02-29T16:33:35.118Z,68.21
2024-02-29T16:34:35.122Z,68.45
2024-02-29T16:35:35.107Z,68.55
2024-02-29T16:36:35.097Z,68.65
2024-02-29T16:37:35.082Z,68.14
2024-02-29T16:38:35.076Z,68.48
2024-02-29T16:39:35.052Z,68.89
2024-02-29T16:40:35.186Z,68.79
2024-02-29T16:41:35.040Z,69.10
2024-02-29T16:42:35.118Z,68.51
2024-02-29T16:43:35.026Z,68.79
2024-02-29T16:44:35.019Z,69.67
2024-02-29T16:45:34.990Z,69.74
2024-02-29T16:46:35.092Z,68.96
2024-02-29T16:47:35.042Z,69.98
2024-02-29T16:48:35.029Z,69.78
2024-02-29T16:49:34.974Z,70.29
2024-02-29T16:50:34.957Z,69.54
2024-02-29T16:51:34.938Z,69.95
2024-02-29T16:52:34.974Z,70.08
2024-02-29T16:53:34.933Z,69.57
2024-02-29T16:54:34.915Z,69.57
2024-02-29T16:55:34.961Z,70.18
2024-02-29T16:56:34.976Z,70.29
2024-02-29T16:57:34.867Z,70.01
2024-02-29T16:58:34.955Z,69.60
2024-02-29T16:59:34.838Z,69.81
2024-02-29T17:00:34.847Z,69.70
2024-02-29T17:01:34.917Z,70.42
2024-02-29T17:02:34.822Z,70.46
2024-02-29T17:03:34.888Z,71.08
2024-02-29T17:04:34.826Z,71.69
2024-02-29T17:05:36.394Z,72.31
2024-02-29T17:06:34.771Z,71.89
2024-02-29T17:07:34.777Z,72.51
2024-02-29T17:08:34.768Z,73.68
2024-02-29T17:09:37.306Z,72.75
2024-02-29T17:10:34.788Z,73.06
2024-02-29T17:11:34.945Z,73.30
2024-02-29T17:12:34.735Z,73.81
2024-02-29T17:13:34.721Z,74.12
2024-02-29T17:14:34.727Z,72.47
2024-02-29T17:15:36.550Z,73.30
2024-02-29T17:16:34.697Z,72.89
2024-02-29T17:17:34.719Z,73.81
2024-02-29T17:18:34.682Z,73.09
2024-02-29T17:19:34.641Z,73.44
2024-02-29T17:20:34.650Z,74.05
2024-02-29T17:21:34.647Z,73.68
2024-02-29T17:22:34.664Z,73.64
2024-02-29T17:23:34.596Z,74.19
2024-02-29T17:24:34.590Z,74.80
2024-02-29T17:25:34.636Z,75.12
2024-02-29T17:26:34.582Z,74.80
2024-02-29T17:27:34.560Z,74.74
2024-02-29T17:28:34.723Z,74.29
2024-02-29T17:29:34.533Z,74.50
2024-02-29T17:30:34.545Z,74.08
2024-02-29T17:31:34.591Z,74.19
2024-02-29T17:32:34.531Z,74.19
2024-02-29T17:33:34.486Z,74.29
2024-02-29T17:34:34.480Z,74.60
2024-02-29T17:35:34.509Z,74.19
2024-02-29T17:36:34.472Z,74.43
2024-02-29T17:37:34.469Z,74.70
2024-02-29T17:38:34.464Z,74.80
2024-02-29T17:39:34.429Z,74.63
2024-02-29T17:40:34.515Z,74.19
2024-02-29T17:41:34.421Z,74.74
2024-02-29T17:42:34.439Z,74.84
2024-02-29T17:43:34.516Z,74.84
2024-02-29T17:44:34.452Z,75.60
2024-02-29T17:45:34.396Z,75.35
2024-02-29T17:46:34.428Z,76.04
2024-02-29T17:47:34.391Z,76.63
2024-02-29T17:48:34.368Z,76.83
2024-02-29T17:49:34.357Z,76.63